Time;durP1;ratioP1;P1;durP2;ratioP2;P2;SDS_P1;SDS_P2;PMS_P1;PMS_P2;Temp;Humidity;BMP_temperature;BMP_pressure;BME280_temperature;BME280_humidity;BME280_pressure;Samples;Min_cycle;Max_cycle;Signal;HPM_P1;HPM_P2
2024/02/12 00:00:44;;;;;;;1.37;1.10;;;9.30;99.90;;;;;;5039355;28;20558;-75
2024/02/12 00:03:10;;;;;;;1.30;1.20;;;9.30;99.90;;;;;;5025338;28;20520;-74
2024/02/12 00:05:36;;;;;;;1.17;1.07;;;9.20;99.90;;;;;;5038960;28;20498;-75
2024/02/12 00:08:09;;;;;;;1.33;0.97;;;9.20;99.90;;;;;;5039259;28;20220;-77
2024/02/12 00:10:34;;;;;;;0.93;0.87;;;9.30;99.90;;;;;;5035614;28;20471;-73
2024/02/12 00:13:00;;;;;;;1.53;1.17;;;9.30;99.90;;;;;;5024371;28;20929;-76
2024/02/12 00:15:27;;;;;;;1.70;1.20;;;9.30;99.90;;;;;;5038183;28;20220;-75
2024/02/12 00:17:52;;;;;;;1.00;0.90;;;9.20;99.90;;;;;;5048111;28;20216;-76
2024/02/12 00:20:18;;;;;;;1.30;1.20;;;9.20;99.90;;;;;;5040003;28;20877;-75
2024/02/12 00:22:44;;;;;;;1.00;0.90;;;9.10;99.90;;;;;;5035790;28;20589;-75
2024/02/12 00:25:13;;;;;;;2.67;1.53;;;9.10;99.90;;;;;;5038386;28;20226;-74
2024/02/12 00:27:39;;;;;;;1.70;0.77;;;9.20;99.90;;;;;;5037830;28;20594;-75
2024/02/12 00:30:08;;;;;;;1.10;1.10;;;9.20;99.90;;;;;;5040479;28;20474;-76
2024/02/12 00:32:37;;;;;;;2.33;1.40;;;9.20;99.90;;;;;;5033973;28;20717;-76
2024/02/12 00:35:03;;;;;;;2.07;1.00;;;9.30;99.90;;;;;;5040637;28;20455;-76
2024/02/12 00:37:29;;;;;;;1.50;1.40;;;9.30;99.90;;;;;;5037086;28;20842;-75
2024/02/12 00:39:55;;;;;;;1.30;1.20;;;9.30;99.90;;;;;;5034953;28;20230;-76
2024/02/12 00:42:23;;;;;;;1.10;1.00;;;9.30;99.90;;;;;;5041474;28;20382;-76
2024/02/12 00:44:50;;;;;;;1.30;1.20;;;9.20;99.90;;;;;;5041476;28;21013;-75
2024/02/12 00:47:16;;;;;;;1.20;1.10;;;9.20;99.90;;;;;;5025649;28;20481;-75
2024/02/12 00:49:43;;;;;;;1.40;1.27;;;9.20;99.90;;;;;;5035852;28;20474;-75
2024/02/12 00:52:14;;;;;;;1.17;1.07;;;9.10;99.90;;;;;;5021354;28;20471;-76
2024/02/12 00:54:40;;;;;;;0.80;0.80;;;9.10;99.90;;;;;;5038068;28;20565;-75
2024/02/12 00:57:07;;;;;;;1.30;1.23;;;9.10;99.90;;;;;;5041937;28;20562;-76
2024/02/12 00:59:38;;;;;;;1.27;1.17;;;9.10;99.90;;;;;;5034796;28;20462;-75
2024/02/12 01:02:05;;;;;;;1.00;1.00;;;9.10;99.90;;;;;;5037748;28;20969;-76
2024/02/12 01:04:31;;;;;;;2.20;0.90;;;9.10;99.90;;;;;;5040713;28;21008;-76
2024/02/12 01:06:57;;;;;;;2.20;1.20;;;9.10;99.90;;;;;;5038605;28;20474;-76
2024/02/12 01:09:23;;;;;;;1.40;1.30;;;9.10;99.90;;;;;;5038584;28;20220;-76
2024/02/12 01:11:49;;;;;;;1.30;1.10;;;9.00;99.90;;;;;;5039956;28;21129;-76
2024/02/12 01:14:14;;;;;;;0.80;0.80;;;9.00;99.90;;;;;;5038455;28;20207;-76
2024/02/12 01:16:41;;;;;;;1.20;1.10;;;9.00;99.90;;;;;;5034367;28;20579;-76
2024/02/12 01:19:06;;;;;;;1.03;0.80;;;9.00;99.90;;;;;;5037639;28;20212;-75
2024/02/12 01:21:33;;;;;;;0.83;0.83;;;8.90;99.90;;;;;;5035812;28;20996;-76
2024/02/12 01:24:01;;;;;;;0.80;0.80;;;8.90;99.90;;;;;;5037211;28;20279;-75
2024/02/12 01:26:27;;;;;;;1.17;0.70;;;8.90;99.90;;;;;;5039198;28;20478;-76
2024/02/12 01:28:53;;;;;;;1.33;1.23;;;8.80;99.90;;;;;;5037568;28;20473;-75
2024/02/12 01:31:19;;;;;;;1.10;1.10;;;8.80;99.90;;;;;;5034977;28;20454;-76
2024/02/12 01:33:46;;;;;;;0.90;0.90;;;8.80;99.90;;;;;;5018492;28;20467;-75
2024/02/12 01:36:13;;;;;;;1.53;1.43;;;8.80;99.90;;;;;;5038775;28;20478;-75
2024/02/12 01:38:40;;;;;;;0.77;0.77;;;8.70;99.90;;;;;;5033036;28;20477;-75
2024/02/12 01:41:06;;;;;;;0.63;0.63;;;8.70;99.90;;;;;;5054794;28;20476;-76
2024/02/12 01:43:31;;;;;;;1.00;1.00;;;8.60;99.90;;;;;;5037328;28;20565;-75
2024/02/12 01:45:59;;;;;;;1.87;0.80;;;8.70;99.90;;;;;;5045288;28;20539;-75
2024/02/12 01:48:26;;;;;;;1.87;1.00;;;8.60;99.90;;;;;;5046265;28;20223;-76
2024/02/12 01:50:52;;;;;;;0.77;0.53;;;8.60;99.90;;;;;;5045562;28;20465;-75
2024/02/12 01:53:19;;;;;;;1.20;1.10;;;8.50;99.90;;;;;;5052291;28;20458;-75
2024/02/12 01:55:45;;;;;;;1.23;0.60;;;8.50;99.90;;;;;;5040577;28;20470;-74
2024/02/12 01:58:14;;;;;;;0.80;0.80;;;8.50;99.90;;;;;;5026350;28;20573;-75
2024/02/12 02:00:44;;;;;;;0.83;0.83;;;8.50;99.90;;;;;;5053428;28;20462;-76
2024/02/12 02:03:11;;;;;;;2.20;0.93;;;8.50;99.90;;;;;;5050848;28;20523;-75
2024/02/12 02:05:37;;;;;;;1.07;0.90;;;8.40;99.90;;;;;;5039254;28;20477;-76
2024/02/12 02:08:03;;;;;;;0.70;0.70;;;8.40;99.90;;;;;;5061462;28;20984;-76
2024/02/12 02:10:29;;;;;;;0.70;0.60;;;8.40;99.90;;;;;;5042611;28;20466;-75
2024/02/12 02:12:59;;;;;;;0.63;0.63;;;8.40;99.90;;;;;;5051088;28;20467;-76
2024/02/12 02:15:26;;;;;;;0.80;0.80;;;8.40;99.90;;;;;;5053576;28;20461;-75
2024/02/12 02:17:51;;;;;;;1.47;0.70;;;8.40;99.90;;;;;;5040696;28;20481;-75
2024/02/12 02:20:20;;;;;;;6.10;1.00;;;8.40;99.90;;;;;;5046492;28;20515;-76
2024/02/12 02:22:47;;;;;;;0.77;0.60;;;8.40;99.90;;;;;;5040939;28;20230;-75
2024/02/12 02:25:13;;;;;;;0.77;0.70;;;8.40;99.90;;;;;;5045002;28;20466;-75
2024/02/12 02:27:39;;;;;;;0.60;0.60;;;8.40;99.90;;;;;;5040130;28;20458;-76
2024/02/12 02:30:07;;;;;;;0.50;0.40;;;8.40;99.90;;;;;;5049419;28;20335;-75
2024/02/12 02:32:37;;;;;;;0.50;0.50;;;8.30;99.90;;;;;;5036155;28;20248;-75
2024/02/12 02:35:04;;;;;;;0.57;0.57;;;8.30;99.90;;;;;;5045083;28;20476;-75
2024/02/12 02:37:30;;;;;;;0.60;0.60;;;8.30;99.90;;;;;;5046885;28;20459;-75
2024/02/12 02:39:56;;;;;;;0.60;0.60;;;8.30;99.90;;;;;;5019852;28;22182;-76
2024/02/12 02:42:22;;;;;;;0.50;0.40;;;8.30;99.90;;;;;;5026537;28;20502;-76
2024/02/12 02:44:48;;;;;;;0.93;0.80;;;8.30;99.90;;;;;;5041908;28;20242;-76
2024/02/12 02:47:14;;;;;;;0.73;0.70;;;8.30;99.90;;;;;;5042174;28;20277;-75
2024/02/12 02:49:43;;;;;;;0.40;0.40;;;8.30;99.90;;;;;;5039756;28;20465;-76
2024/02/12 02:52:08;;;;;;;1.37;1.27;;;8.30;99.90;;;;;;5049829;28;20464;-76
2024/02/12 02:54:34;;;;;;;0.50;0.50;;;8.30;99.90;;;;;;5040029;28;20830;-76
2024/02/12 02:57:00;;;;;;;0.60;0.60;;;8.30;99.90;;;;;;5059770;28;20215;-76
2024/02/12 02:59:26;;;;;;;0.40;0.40;;;8.30;99.90;;;;;;5047579;28;20241;-76
2024/02/12 03:01:52;;;;;;;1.10;0.67;;;8.40;99.90;;;;;;5042916;28;20238;-75
2024/02/12 03:04:17;;;;;;;1.40;0.60;;;8.30;99.90;;;;;;5044467;28;20749;-76
2024/02/12 03:06:43;;;;;;;0.50;0.50;;;8.30;99.90;;;;;;5039235;28;20212;-77
2024/02/12 03:09:10;;;;;;;1.33;1.00;;;8.30;99.90;;;;;;5056390;28;20584;-75
2024/02/12 03:11:37;;;;;;;0.50;0.50;;;8.20;99.90;;;;;;5041083;28;20247;-75
2024/02/12 03:14:03;;;;;;;0.93;0.90;;;8.20;99.90;;;;;;5042134;28;20830;-76
2024/02/12 03:16:29;;;;;;;0.70;0.70;;;8.20;99.90;;;;;;5066948;28;20454;-76
2024/02/12 03:18:55;;;;;;;2.20;0.60;;;8.20;99.90;;;;;;5045060;28;20536;-76
2024/02/12 03:21:22;;;;;;;0.70;0.60;;;8.20;99.90;;;;;;5050632;28;20219;-76
2024/02/12 03:23:49;;;;;;;2.33;1.03;;;8.20;99.90;;;;;;5039559;28;20995;-76
2024/02/12 03:26:15;;;;;;;0.50;0.50;;;8.20;99.90;;;;;;5026615;28;20461;-76
2024/02/12 03:28:41;;;;;;;0.70;0.60;;;8.10;99.90;;;;;;5037880;28;20463;-76
2024/02/12 03:31:08;;;;;;;0.57;0.57;;;8.10;99.90;;;;;;5054785;28;20992;-76
2024/02/12 03:33:34;;;;;;;0.90;0.60;;;8.10;99.90;;;;;;5041580;28;21102;-75
2024/02/12 03:36:01;;;;;;;0.50;0.50;;;8.10;99.90;;;;;;5054962;28;20517;-75
2024/02/12 03:38:27;;;;;;;0.80;0.70;;;8.20;99.90;;;;;;5041105;28;20558;-75
2024/02/12 03:40:55;;;;;;;0.60;0.60;;;8.20;99.90;;;;;;5048702;28;20451;-75
2024/02/12 03:43:24;;;;;;;1.10;0.80;;;8.10;99.90;;;;;;5046251;28;20482;-75
2024/02/12 03:45:56;;;;;;;1.03;0.93;;;8.10;99.90;;;;;;5038899;28;20458;-75
2024/02/12 04:02:07;;;;;;;0.60;0.60;;;8.00;99.90;;;;;;5039066;28;20485;-76
2024/02/12 04:04:33;;;;;;;0.83;0.77;;;8.00;99.90;;;;;;5050716;28;20478;-76
2024/02/12 04:07:02;;;;;;;0.67;0.60;;;8.00;99.90;;;;;;5034996;28;20464;-75
2024/02/12 04:09:27;;;;;;;1.17;0.57;;;8.10;99.90;;;;;;5047561;28;20459;-75
2024/02/12 04:11:54;;;;;;;0.70;0.70;;;8.10;99.90;;;;;;5042882;28;20443;-75
2024/02/12 04:14:20;;;;;;;0.70;0.70;;;8.10;99.90;;;;;;5043360;28;20659;-76
2024/02/12 04:16:51;;;;;;;0.57;0.57;;;8.00;99.90;;;;;;5040328;28;20484;-75
2024/02/12 04:19:22;;;;;;;0.70;0.60;;;8.10;99.90;;;;;;5046709;28;20221;-75
2024/02/12 04:21:52;;;;;;;1.13;0.97;;;8.10;99.90;;;;;;5042568;28;20462;-75
2024/02/12 04:24:18;;;;;;;0.80;0.60;;;8.00;99.90;;;;;;5057495;28;20458;-76
2024/02/12 04:26:44;;;;;;;0.60;0.60;;;8.00;99.90;;;;;;5046318;28;20912;-76
2024/02/12 04:29:10;;;;;;;1.10;0.87;;;8.00;99.90;;;;;;5052681;28;20545;-75
2024/02/12 04:31:36;;;;;;;0.50;0.50;;;8.00;99.90;;;;;;5042191;28;20306;-74
2024/02/12 04:34:07;;;;;;;0.87;0.70;;;8.00;99.90;;;;;;5038152;28;20213;-75
2024/02/12 04:36:39;;;;;;;0.90;0.70;;;8.00;99.90;;;;;;5038457;28;20220;-75
2024/02/12 04:39:05;;;;;;;0.60;0.50;;;8.00;99.90;;;;;;5040074;28;20439;-75
2024/02/12 04:41:44;;;;;;;0.80;0.80;;;8.00;99.90;;;;;;5040934;28;20985;-75
2024/02/12 04:44:10;;;;;;;0.90;0.80;;;8.10;99.90;;;;;;5041843;28;20227;-75
2024/02/12 04:46:38;;;;;;;1.40;0.90;;;8.00;99.90;;;;;;5038014;28;20447;-75
2024/02/12 04:49:04;;;;;;;0.97;0.87;;;8.00;99.90;;;;;;5040583;28;20513;-76
2024/02/12 04:51:37;;;;;;;0.70;0.70;;;8.00;99.90;;;;;;5043617;28;20454;-75
2024/02/12 04:54:03;;;;;;;1.40;1.30;;;8.10;99.90;;;;;;5042539;28;20445;-76
2024/02/12 04:56:29;;;;;;;1.00;1.00;;;8.00;99.90;;;;;;5047133;28;20464;-75
2024/02/12 04:58:56;;;;;;;3.03;2.00;;;8.10;99.90;;;;;;5039903;28;20944;-76
2024/02/12 05:01:22;;;;;;;1.30;1.20;;;8.10;99.90;;;;;;5039717;28;20619;-76
2024/02/12 05:03:50;;;;;;;1.97;1.77;;;8.00;99.90;;;;;;5038119;28;20563;-76
2024/02/12 05:06:16;;;;;;;3.73;2.50;;;8.00;99.90;;;;;;5049052;28;20906;-75
2024/02/12 05:08:43;;;;;;;1.60;1.50;;;8.10;99.90;;;;;;5042693;28;20467;-76
2024/02/12 05:11:09;;;;;;;2.50;2.20;;;8.10;99.90;;;;;;5036178;28;20505;-75
2024/02/12 05:13:36;;;;;;;2.33;1.77;;;8.00;99.90;;;;;;5040367;28;20513;-76
2024/02/12 05:16:07;;;;;;;2.87;1.53;;;8.00;99.90;;;;;;5046375;28;20272;-76
2024/02/12 05:24:01;;;;;;;3.20;2.30;;;7.90;99.90;;;;;;5031538;28;20554;-75
2024/02/12 05:26:27;;;;;;;2.20;1.87;;;8.00;99.90;;;;;;5033076;28;20456;-75
2024/02/12 05:28:53;;;;;;;2.97;2.30;;;7.90;99.90;;;;;;5035465;28;20451;-76
2024/02/12 05:31:19;;;;;;;2.33;1.80;;;7.90;99.90;;;;;;5042549;28;20212;-76
2024/02/12 05:33:44;;;;;;;2.80;1.90;;;7.90;99.90;;;;;;5036779;28;20220;-76
2024/02/12 05:36:17;;;;;;;2.20;1.67;;;7.90;99.90;;;;;;5042267;28;20208;-76
2024/02/12 05:38:45;;;;;;;3.03;2.00;;;7.90;99.90;;;;;;5049445;28;20291;-76
2024/02/12 05:41:11;;;;;;;1.80;1.70;;;7.90;99.90;;;;;;5031486;28;20445;-76
2024/02/12 05:43:37;;;;;;;1.60;1.47;;;7.90;99.90;;;;;;5044198;28;20507;-76
2024/02/12 05:46:04;;;;;;;2.23;1.50;;;7.90;99.90;;;;;;5044349;28;20530;-77
2024/02/12 05:48:30;;;;;;;1.70;1.57;;;7.90;99.90;;;;;;5042896;28;20477;-76
2024/02/12 05:50:57;;;;;;;2.60;1.87;;;7.80;99.90;;;;;;5043806;28;20455;-76
2024/02/12 05:53:23;;;;;;;4.97;2.30;;;7.80;99.90;;;;;;5044601;28;20678;-74
2024/02/12 05:55:49;;;;;;;3.37;2.07;;;7.70;99.90;;;;;;5025015;28;20466;-76
2024/02/12 05:58:15;;;;;;;3.20;2.23;;;7.70;99.90;;;;;;5044214;28;21003;-76
2024/02/12 06:00:42;;;;;;;2.83;2.00;;;7.70;99.90;;;;;;5039588;28;20458;-75
2024/02/12 06:03:08;;;;;;;2.80;2.10;;;7.70;99.90;;;;;;5049850;28;20359;-76
2024/02/12 06:05:33;;;;;;;3.70;2.50;;;7.70;99.90;;;;;;5048568;28;20456;-76
2024/02/12 06:07:59;;;;;;;3.00;2.27;;;7.70;99.90;;;;;;5041294;28;20701;-76
2024/02/12 06:10:25;;;;;;;3.20;2.43;;;7.70;99.90;;;;;;5043076;28;20216;-76
2024/02/12 06:12:50;;;;;;;3.73;2.50;;;7.70;99.90;;;;;;5036878;28;20263;-77
2024/02/12 06:15:16;;;;;;;2.43;2.00;;;7.70;99.90;;;;;;5043296;28;20212;-76
2024/02/12 06:17:42;;;;;;;3.93;1.90;;;7.70;99.90;;;;;;5036452;28;20223;-75
2024/02/12 06:20:08;;;;;;;3.40;2.80;;;7.70;99.90;;;;;;5044526;28;20213;-76
2024/02/12 06:22:34;;;;;;;3.27;2.43;;;7.70;99.90;;;;;;5050304;28;20794;-77
2024/02/12 06:25:04;;;;;;;2.80;2.60;;;7.70;99.90;;;;;;5047632;28;20451;-76
2024/02/12 06:27:30;;;;;;;2.63;2.20;;;7.70;99.90;;;;;;5044591;28;20246;-76
2024/02/12 06:29:57;;;;;;;4.07;2.87;;;7.70;99.90;;;;;;5030406;28;20495;-77
2024/02/12 06:32:23;;;;;;;3.50;2.30;;;7.70;99.90;;;;;;5033925;28;20591;-76
2024/02/12 06:34:49;;;;;;;3.13;2.83;;;7.60;99.90;;;;;;5032901;28;20459;-76
2024/02/12 06:37:15;;;;;;;5.07;3.77;;;7.70;99.90;;;;;;5050985;28;20216;-76
2024/02/12 06:39:42;;;;;;;2.80;2.53;;;7.70;99.90;;;;;;5014794;28;20521;-76
2024/02/12 06:42:08;;;;;;;4.70;3.27;;;7.70;99.90;;;;;;5049662;28;20506;-76
2024/02/12 06:44:33;;;;;;;4.77;3.00;;;7.60;99.90;;;;;;5056979;28;20481;-77
2024/02/12 06:46:59;;;;;;;2.70;2.50;;;7.60;99.90;;;;;;5042017;28;20319;-76
2024/02/12 06:49:25;;;;;;;3.63;3.20;;;7.60;99.90;;;;;;5030905;28;20565;-77
2024/02/12 06:51:51;;;;;;;6.20;3.10;;;7.60;99.90;;;;;;5034542;28;20310;-76
2024/02/12 06:54:18;;;;;;;5.37;2.97;;;7.60;99.90;;;;;;5039003;28;20216;-76
2024/02/12 06:56:43;;;;;;;4.20;2.73;;;7.60;99.90;;;;;;5035941;28;20216;-76
2024/02/12 06:59:10;;;;;;;3.70;3.27;;;7.60;99.90;;;;;;5023018;28;20490;-76
2024/02/12 07:01:36;;;;;;;4.67;3.07;;;7.60;99.90;;;;;;5017080;28;20239;-76
2024/02/12 07:04:03;;;;;;;3.00;2.30;;;7.60;99.90;;;;;;5036175;28;21012;-76
2024/02/12 07:06:29;;;;;;;3.93;3.10;;;7.50;99.90;;;;;;5033897;28;20448;-77
2024/02/12 07:08:56;;;;;;;8.40;3.40;;;7.50;99.90;;;;;;5050918;28;20464;-76
2024/02/12 07:11:23;;;;;;;4.30;3.10;;;7.50;99.90;;;;;;5043672;28;20454;-76
2024/02/12 07:13:49;;;;;;;4.67;3.30;;;7.50;99.90;;;;;;5045762;28;20884;-76
2024/02/12 07:16:19;;;;;;;3.90;2.50;;;7.50;99.90;;;;;;5039889;28;20455;-76
2024/02/12 07:18:47;;;;;;;5.00;3.10;;;7.50;99.90;;;;;;5035352;28;20454;-76
2024/02/12 07:21:14;;;;;;;4.60;3.50;;;7.50;99.90;;;;;;5029715;28;20458;-76
2024/02/12 07:23:39;;;;;;;3.20;2.63;;;7.50;99.90;;;;;;5022874;28;20486;-76
2024/02/12 07:26:06;;;;;;;5.50;3.97;;;7.60;99.90;;;;;;5054829;28;20443;-76
2024/02/12 07:28:32;;;;;;;2.80;2.40;;;7.50;99.90;;;;;;5055616;28;20243;-76
2024/02/12 07:30:58;;;;;;;3.57;2.30;;;7.50;99.90;;;;;;5054903;28;20802;-76
2024/02/12 07:33:23;;;;;;;4.77;2.73;;;7.60;99.90;;;;;;5042309;28;20689;-77
2024/02/12 07:35:49;;;;;;;6.40;3.40;;;7.50;99.90;;;;;;5045570;28;20208;-76
2024/02/12 07:38:15;;;;;;;3.83;2.57;;;7.50;99.90;;;;;;5032981;28;20227;-76
2024/02/12 07:40:40;;;;;;;4.73;2.90;;;7.50;99.90;;;;;;5061262;28;20215;-76
2024/02/12 07:43:06;;;;;;;4.23;3.10;;;7.50;99.90;;;;;;5041193;28;20231;-77
2024/02/12 07:45:36;;;;;;;3.83;2.50;;;7.50;99.90;;;;;;5040517;28;20281;-77
2024/02/12 07:48:02;;;;;;;5.60;3.53;;;7.50;99.90;;;;;;5050758;28;20232;-77
2024/02/12 07:50:28;;;;;;;4.50;3.13;;;7.60;99.90;;;;;;5044454;28;20924;-77
2024/02/12 07:52:53;;;;;;;3.70;2.77;;;7.50;99.90;;;;;;5057063;28;20474;-77
2024/02/12 07:55:22;;;;;;;8.00;3.30;;;7.60;99.90;;;;;;5040975;28;20588;-76
2024/02/12 07:57:51;;;;;;;4.77;2.40;;;7.60;99.90;;;;;;5040850;28;20224;-77
2024/02/12 08:00:18;;;;;;;4.87;2.67;;;7.60;99.90;;;;;;5043456;28;20446;-76
2024/02/12 08:02:46;;;;;;;4.70;3.20;;;7.60;99.90;;;;;;5044542;28;20470;-75
2024/02/12 08:05:14;;;;;;;4.23;3.63;;;7.60;99.90;;;;;;5043446;28;20454;-76
2024/02/12 08:07:40;;;;;;;4.20;2.47;;;7.60;99.90;;;;;;5040176;28;20478;-76
2024/02/12 08:10:07;;;;;;;5.33;2.47;;;7.60;99.90;;;;;;5042666;28;21044;-76
2024/02/12 08:12:34;;;;;;;3.10;2.60;;;7.60;99.90;;;;;;5040865;28;20241;-76
2024/02/12 08:15:00;;;;;;;8.27;3.63;;;7.70;99.90;;;;;;5044512;28;20454;-76
2024/02/12 08:17:26;;;;;;;4.10;3.13;;;7.70;99.90;;;;;;5045592;28;20467;-76
2024/02/12 08:19:54;;;;;;;4.13;2.80;;;7.70;99.90;;;;;;5048460;28;20585;-76
2024/02/12 08:22:23;;;;;;;4.40;2.40;;;7.70;99.90;;;;;;5034472;28;20228;-76
2024/02/12 08:24:49;;;;;;;4.10;2.80;;;7.70;99.90;;;;;;5035876;28;21181;-76
2024/02/12 08:27:16;;;;;;;3.90;2.90;;;7.80;99.90;;;;;;5040314;28;20482;-76
2024/02/12 08:29:42;;;;;;;3.20;2.53;;;7.80;99.90;;;;;;5053100;28;20660;-75
2024/02/12 08:32:07;;;;;;;3.70;2.93;;;7.80;99.90;;;;;;5031322;28;20451;-76
2024/02/12 08:34:33;;;;;;;4.90;2.50;;;7.80;99.90;;;;;;5041267;28;20303;-76
2024/02/12 08:36:58;;;;;;;3.30;2.10;;;7.80;99.90;;;;;;5047134;28;20760;-75
2024/02/12 08:39:24;;;;;;;6.37;2.67;;;7.80;99.90;;;;;;5032316;28;20890;-76
2024/02/12 08:41:50;;;;;;;5.77;2.97;;;7.80;99.90;;;;;;5046880;28;20215;-75
2024/02/12 08:44:16;;;;;;;3.80;3.00;;;7.80;99.90;;;;;;5043624;28;20224;-76
2024/02/12 08:46:44;;;;;;;3.70;2.70;;;7.80;99.90;;;;;;5039528;28;20450;-76
2024/02/12 08:49:10;;;;;;;5.83;3.20;;;7.80;99.90;;;;;;5033784;28;20220;-75
2024/02/12 08:51:36;;;;;;;5.87;2.77;;;7.80;99.90;;;;;;5035926;28;20454;-76
2024/02/12 08:54:01;;;;;;;4.27;3.10;;;7.80;99.90;;;;;;5044896;28;20235;-76
2024/02/12 08:56:28;;;;;;;6.30;3.80;;;7.80;99.90;;;;;;5036117;28;20660;-76
2024/02/12 08:58:57;;;;;;;4.10;3.00;;;7.80;99.90;;;;;;5033776;28;20303;-76
2024/02/12 09:01:23;;;;;;;5.80;2.60;;;7.80;99.90;;;;;;5033470;28;20446;-75
2024/02/12 09:03:48;;;;;;;4.07;3.13;;;7.80;99.90;;;;;;5020985;28;20513;-76
2024/02/12 09:06:15;;;;;;;4.00;3.03;;;7.80;99.90;;;;;;5023475;28;20209;-76
2024/02/12 09:08:42;;;;;;;3.30;3.00;;;7.80;99.90;;;;;;5021696;28;20220;-76
2024/02/12 09:11:11;;;;;;;5.23;3.50;;;7.80;99.90;;;;;;5033956;28;20454;-76
2024/02/12 09:13:40;;;;;;;3.87;3.20;;;7.90;99.90;;;;;;5039274;28;20993;-76
2024/02/12 09:16:07;;;;;;;6.30;3.70;;;7.90;99.90;;;;;;5034990;28;20451;-76
2024/02/12 09:18:37;;;;;;;4.43;3.37;;;7.90;99.90;;;;;;5056057;28;20557;-76
2024/02/12 09:21:05;;;;;;;4.33;2.87;;;7.90;99.90;;;;;;5035426;28;20477;-75
2024/02/12 09:23:32;;;;;;;5.23;3.27;;;7.90;99.90;;;;;;5040853;28;20481;-76
2024/02/12 09:25:58;;;;;;;5.90;3.13;;;7.90;99.90;;;;;;5038636;28;20480;-76
2024/02/12 09:28:26;;;;;;;4.70;3.17;;;7.90;99.90;;;;;;5054841;28;20462;-76
2024/02/12 09:31:00;;;;;;;4.30;3.77;;;7.90;99.90;;;;;;5046340;28;20463;-76
2024/02/12 09:33:29;;;;;;;7.50;5.77;;;7.90;99.90;;;;;;5038714;28;20462;-76
2024/02/12 09:35:55;;;;;;;10.30;5.63;;;7.90;99.90;;;;;;5033912;28;20488;-76
2024/02/12 09:38:21;;;;;;;6.57;4.60;;;8.00;99.90;;;;;;5040193;28;20462;-76
2024/02/12 09:40:52;;;;;;;5.40;3.03;;;8.00;99.90;;;;;;5035295;28;20462;-76
2024/02/12 09:43:23;;;;;;;3.50;3.20;;;8.00;99.90;;;;;;5040716;28;20473;-76
2024/02/12 09:45:53;;;;;;;12.07;7.97;;;8.00;99.90;;;;;;5048636;28;20475;-76
2024/02/12 09:48:20;;;;;;;16.77;11.00;;;8.10;99.90;;;;;;5039316;28;20829;-75
2024/02/12 09:50:50;;;;;;;15.03;8.77;;;8.10;99.90;;;;;;5035738;28;20541;-76
2024/02/12 09:53:18;;;;;;;9.03;5.17;;;8.10;99.90;;;;;;5039464;28;20462;-76
2024/02/12 09:55:47;;;;;;;13.40;10.13;;;8.10;99.90;;;;;;5039784;28;20568;-75
2024/02/12 09:58:18;;;;;;;20.20;14.80;;;8.20;99.90;;;;;;5022911;28;20589;-75
2024/02/12 10:00:45;;;;;;;13.97;10.53;;;8.20;99.90;;;;;;5034810;28;20481;-76
2024/02/12 10:03:11;;;;;;;12.87;9.73;;;8.20;99.90;;;;;;5037579;28;20466;-76
2024/02/12 10:05:40;;;;;;;9.83;7.77;;;8.20;99.90;;;;;;5040106;28;20516;-76
2024/02/12 10:08:26;;;;;;;6.50;5.90;;;8.30;99.90;;;;;;5048932;28;20471;-75
2024/02/12 10:10:52;;;;;;;5.20;4.70;;;8.30;99.90;;;;;;5029864;28;20497;-76
2024/02/12 10:13:20;;;;;;;3.90;3.50;;;8.40;99.90;;;;;;5033586;28;20494;-76
2024/02/12 10:15:47;;;;;;;5.33;3.30;;;8.40;99.90;;;;;;5020554;28;20466;-76
2024/02/12 10:18:15;;;;;;;6.03;4.20;;;8.40;99.90;;;;;;5038961;28;20462;-75
2024/02/12 10:20:42;;;;;;;3.73;3.30;;;8.40;99.90;;;;;;5034164;28;20471;-75
2024/02/12 10:23:09;;;;;;;8.10;5.20;;;8.50;99.90;;;;;;5035720;28;21000;-76
2024/02/12 10:25:43;;;;;;;10.20;6.17;;;8.50;99.90;;;;;;5024865;28;20462;-76
2024/02/12 10:28:18;;;;;;;8.90;5.67;;;8.50;99.90;;;;;;5036356;28;20481;-76
2024/02/12 10:30:46;;;;;;;4.20;3.40;;;8.60;99.90;;;;;;5036924;28;20502;-76
2024/02/12 10:33:13;;;;;;;4.93;3.40;;;8.70;99.90;;;;;;5039715;28;20466;-76
2024/02/12 10:35:46;;;;;;;5.13;3.50;;;8.70;99.90;;;;;;5040456;28;20544;-76
2024/02/12 10:38:14;;;;;;;4.40;3.87;;;8.70;99.90;;;;;;5036849;28;20474;-76
2024/02/12 10:41:19;;;;;;;4.10;3.67;;;8.70;99.90;;;;;;5037098;28;20481;-76
2024/02/12 10:43:46;;;;;;;6.63;3.90;;;8.80;99.90;;;;;;5036601;28;20485;-74
2024/02/12 10:46:12;;;;;;;5.40;4.43;;;8.80;99.90;;;;;;5023802;28;20663;-76
2024/02/12 10:48:42;;;;;;;6.97;4.10;;;8.80;99.90;;;;;;5040020;28;20470;-75
2024/02/12 10:51:08;;;;;;;3.50;2.80;;;8.90;99.90;;;;;;5018955;28;20502;-76
2024/02/12 10:53:37;;;;;;;3.57;3.13;;;8.90;99.90;;;;;;5039285;28;20490;-77
2024/02/12 10:56:04;;;;;;;11.47;4.60;;;8.90;99.90;;;;;;5035404;28;20528;-76
2024/02/12 10:58:31;;;;;;;4.17;3.77;;;9.00;99.90;;;;;;5040749;28;20474;-76
2024/02/12 11:00:58;;;;;;;5.10;4.57;;;9.00;99.90;;;;;;5035537;28;20475;-75
2024/02/12 11:03:39;;;;;;;13.83;4.30;;;9.00;99.90;;;;;;5041542;28;20485;-76
2024/02/12 11:06:08;;;;;;;5.67;4.03;;;9.10;99.90;;;;;;5038244;28;20469;-75
2024/02/12 11:08:36;;;;;;;7.07;4.03;;;9.20;99.90;;;;;;5040194;28;20463;-76
2024/02/12 11:11:03;;;;;;;6.00;5.07;;;9.20;99.90;;;;;;5037058;28;20538;-76
2024/02/12 11:13:39;;;;;;;6.23;4.73;;;9.20;99.90;;;;;;5042135;28;20466;-75
2024/02/12 11:16:06;;;;;;;4.80;3.70;;;9.20;99.90;;;;;;5046604;28;20459;-76
2024/02/12 11:18:35;;;;;;;6.90;3.60;;;9.20;99.90;;;;;;5040027;28;20466;-76
2024/02/12 11:21:02;;;;;;;5.50;3.83;;;9.20;99.90;;;;;;5033673;28;20846;-76
2024/02/12 11:23:28;;;;;;;4.80;3.70;;;9.30;99.90;;;;;;5038062;28;20458;-76
2024/02/12 11:25:59;;;;;;;6.13;4.07;;;9.30;99.90;;;;;;5035942;28;20501;-76
2024/02/12 11:28:29;;;;;;;5.60;3.23;;;9.40;99.90;;;;;;5052603;28;20471;-75
2024/02/12 11:30:56;;;;;;;4.50;3.30;;;9.40;99.90;;;;;;5034591;28;20486;-75
2024/02/12 11:33:25;;;;;;;4.33;2.90;;;9.40;99.90;;;;;;5031589;28;20450;-77
2024/02/12 11:36:08;;;;;;;5.77;3.23;;;9.40;99.90;;;;;;5035085;28;20470;-76
2024/02/12 11:38:52;;;;;;;3.67;3.30;;;9.40;99.90;;;;;;5041461;28;20573;-76
2024/02/12 11:41:18;;;;;;;9.23;4.13;;;9.50;99.90;;;;;;5036657;28;20454;-76
2024/02/12 11:43:47;;;;;;;5.40;3.50;;;9.50;99.90;;;;;;5038861;28;20875;-75
2024/02/12 11:46:15;;;;;;;2.73;2.53;;;9.60;99.90;;;;;;5038597;28;20523;-76
2024/02/12 11:48:42;;;;;;;6.60;3.50;;;9.60;99.90;;;;;;5039427;28;20469;-76
2024/02/12 11:51:09;;;;;;;5.47;3.20;;;9.60;99.90;;;;;;5034084;28;20462;-76
2024/02/12 11:53:40;;;;;;;7.70;3.57;;;9.60;99.90;;;;;;5039468;28;20469;-76
2024/02/12 11:56:07;;;;;;;8.13;3.43;;;9.70;99.90;;;;;;5033844;28;20449;-76
2024/02/12 11:58:33;;;;;;;5.30;2.93;;;9.70;99.90;;;;;;5048196;28;20470;-76
2024/02/12 12:00:59;;;;;;;5.33;2.90;;;9.80;99.90;;;;;;5016063;28;20455;-76
2024/02/12 12:03:27;;;;;;;7.73;3.20;;;9.80;99.90;;;;;;5040366;28;20486;-75
2024/02/12 12:05:54;;;;;;;7.63;2.40;;;9.80;99.90;;;;;;5038214;28;20208;-76
2024/02/12 12:08:26;;;;;;;9.43;2.77;;;9.80;99.90;;;;;;5036675;28;20861;-76
2024/02/12 12:10:52;;;;;;;5.57;2.80;;;9.70;99.90;;;;;;5033437;28;20467;-76
2024/02/12 12:13:21;;;;;;;2.77;2.30;;;9.70;99.90;;;;;;5043138;28;20460;-76
2024/02/12 12:15:46;;;;;;;2.03;1.80;;;9.80;99.90;;;;;;5039985;28;20215;-76
2024/02/12 12:18:12;;;;;;;4.67;2.23;;;9.80;99.90;;;;;;5035722;28;20953;-77
2024/02/12 12:20:38;;;;;;;3.30;2.30;;;9.80;99.90;;;;;;5016739;28;20216;-76
2024/02/12 12:23:09;;;;;;;6.33;4.40;;;9.70;99.90;;;;;;5043130;28;20781;-76
2024/02/12 12:25:36;;;;;;;19.33;15.30;;;9.70;99.90;;;;;;5017866;28;20212;-76
2024/02/12 12:28:05;;;;;;;23.60;13.47;;;9.80;99.90;;;;;;5028483;28;20549;-77
2024/02/12 12:30:32;;;;;;;14.60;7.27;;;9.80;99.90;;;;;;5029389;28;20466;-76
2024/02/12 12:32:58;;;;;;;11.00;7.80;;;9.70;99.90;;;;;;5030890;28;20466;-76
2024/02/12 12:35:24;;;;;;;10.13;8.50;;;9.70;99.90;;;;;;5034132;28;20481;-75
2024/02/12 12:37:52;;;;;;;8.40;5.67;;;9.70;99.90;;;;;;5030311;28;20976;-76
2024/02/12 12:40:25;;;;;;;5.93;4.90;;;9.80;99.90;;;;;;5026699;28;20983;-77
2024/02/12 12:42:53;;;;;;;4.60;4.07;;;9.80;99.90;;;;;;5030164;28;20506;-77
2024/02/12 12:45:21;;;;;;;9.53;3.43;;;9.80;99.90;;;;;;5033315;28;20442;-77
2024/02/12 12:47:48;;;;;;;4.10;3.10;;;9.90;99.90;;;;;;5031370;28;20890;-76
2024/02/12 12:50:14;;;;;;;6.03;3.27;;;9.90;99.90;;;;;;5012013;28;20486;-76
2024/02/12 12:52:41;;;;;;;3.70;2.67;;;9.90;99.90;;;;;;5035852;28;20473;-76
2024/02/12 12:55:08;;;;;;;6.20;2.77;;;10.00;99.90;;;;;;5033693;28;20465;-76
2024/02/12 12:57:35;;;;;;;4.80;2.57;;;10.00;99.90;;;;;;5036111;28;20466;-76
2024/02/12 13:00:18;;;;;;;3.20;2.40;;;10.00;99.90;;;;;;5021146;28;20488;-76
2024/02/12 13:02:58;;;;;;;4.00;2.33;;;10.10;99.90;;;;;;5040329;28;20581;-76
2024/02/12 13:05:25;;;;;;;5.20;2.27;;;10.10;99.90;;;;;;5042643;28;20462;-76
2024/02/12 13:07:52;;;;;;;7.87;2.37;;;10.10;99.90;;;;;;5033384;28;20980;-76
2024/02/12 13:10:19;;;;;;;3.83;2.13;;;10.10;99.90;;;;;;5035496;28;20595;-76
2024/02/12 13:12:45;;;;;;;9.03;2.70;;;10.10;99.90;;;;;;5041015;28;20541;-76
2024/02/12 13:15:13;;;;;;;4.00;2.00;;;10.20;99.90;;;;;;5018181;28;20462;-77